createdAt,value
2018-12-12T00:00:09.320Z,79.22
2018-12-12T00:00:50.114Z,79.07
2018-12-12T00:01:30.926Z,78.55
2018-12-12T00:02:11.716Z,79.03
2018-12-12T00:02:52.452Z,78.84
2018-12-12T00:03:33.160Z,78.98
2018-12-12T00:04:13.928Z,78.84
2018-12-12T00:04:54.771Z,78.94
2018-12-12T00:05:35.509Z,78.55
2018-12-12T00:06:16.394Z,78.84
2018-12-12T00:06:57.189Z,79.17
2018-12-12T00:07:38.031Z,79.22
2018-12-12T00:08:18.860Z,79.22
2018-12-12T00:08:59.899Z,79.03
2018-12-12T00:09:40.614Z,79.17
2018-12-12T00:10:21.410Z,79.22
2018-12-12T00:11:02.223Z,79.27
2018-12-12T00:11:43.044Z,78.75
2018-12-12T00:12:23.913Z,78.84
2018-12-12T00:13:04.696Z,79.03
2018-12-12T00:13:45.446Z,78.84
2018-12-12T00:14:26.190Z,79.03
2018-12-12T00:15:06.910Z,79.22
2018-12-12T00:15:47.767Z,79.13
2018-12-12T00:16:28.499Z,79.22
2018-12-12T00:17:09.249Z,79.22
2018-12-12T00:17:50.070Z,79.22
2018-12-12T00:18:30.848Z,78.94
2018-12-12T00:19:11.630Z,78.55
2018-12-12T00:19:52.471Z,78.94
2018-12-12T00:20:33.238Z,78.84
2018-12-12T00:21:14.049Z,79.22
2018-12-12T00:21:54.745Z,78.94
2018-12-12T00:22:35.462Z,78.59
2018-12-12T00:23:16.181Z,78.65
2018-12-12T00:23:56.992Z,78.65
2018-12-12T00:24:37.717Z,79.17
2018-12-12T00:25:18.444Z,79.17
2018-12-12T00:25:59.196Z,78.94
2018-12-12T00:26:40.012Z,78.75
2018-12-12T00:27:20.801Z,78.45
2018-12-12T00:28:01.624Z,78.59
2018-12-12T00:28:42.352Z,78.65
2018-12-12T00:29:23.090Z,78.5
2018-12-12T00:30:03.822Z,78.78
2018-12-12T00:30:44.607Z,78.78
2018-12-12T00:31:25.450Z,78.36
2018-12-12T00:32:06.258Z,78.69
2018-12-12T00:32:46.977Z,78.84
2018-12-12T00:33:27.737Z,78.69
2018-12-12T00:34:08.551Z,78.78
2018-12-12T00:34:49.320Z,79.07
2018-12-12T00:35:30.055Z,78.65
2018-12-12T00:36:10.784Z,79.17
2018-12-12T00:36:51.570Z,78.65
2018-12-12T00:37:32.369Z,78.75
2018-12-12T00:38:13.188Z,78.27
2018-12-12T00:38:53.973Z,78.55
2018-12-12T00:39:34.706Z,79.07
2018-12-12T00:40:15.384Z,78.94
2018-12-12T00:40:56.184Z,78.98
2018-12-12T00:41:37.086Z,78.94
2018-12-12T00:42:17.888Z,78.45
2018-12-12T00:42:58.647Z,78.75
2018-12-12T00:43:39.377Z,78.55
2018-12-12T00:44:20.202Z,78.36
2018-12-12T00:45:00.987Z,78.75
2018-12-12T00:45:41.733Z,78.65
2018-12-12T00:46:22.487Z,78.55
2018-12-12T00:47:03.211Z,78.45
2018-12-12T00:47:44.001Z,78.69
2018-12-12T00:48:24.784Z,78.94
2018-12-12T00:49:05.623Z,78.88
2018-12-12T00:49:46.393Z,78.94
2018-12-12T00:50:27.125Z,78.88
2018-12-12T00:51:07.875Z,78.27
2018-12-12T00:51:48.653Z,78.45
2018-12-12T00:52:29.359Z,78.27
2018-12-12T00:53:10.097Z,78.02
2018-12-12T00:53:50.809Z,78.3
2018-12-12T00:54:31.604Z,77.98
2018-12-12T00:55:12.336Z,78.08
2018-12-12T00:55:53.102Z,77.98
2018-12-12T00:56:33.876Z,78.65
2018-12-12T00:57:14.716Z,78.27
2018-12-12T00:57:55.534Z,78.27
2018-12-12T00:58:36.282Z,78.21
2018-12-12T00:59:17.030Z,78.59
2018-12-12T00:59:57.842Z,78.59
2018-12-12T01:00:38.582Z,78.08
2018-12-12T01:01:19.293Z,78.4
2018-12-12T01:02:00.093Z,78.75
2018-12-12T01:02:40.848Z,78.69
2018-12-12T01:03:21.648Z,78.17
2018-12-12T01:04:02.438Z,78.4
2018-12-12T01:04:43.268Z,78.36
2018-12-12T01:05:24.010Z,78.21
2018-12-12T01:06:04.759Z,77.92
2018-12-12T01:06:45.484Z,78.21
2018-12-12T01:07:26.318Z,78.17
2018-12-12T01:08:07.104Z,78.27
2018-12-12T01:08:47.799Z,78.17
2018-12-12T01:09:28.592Z,78.36
2018-12-12T01:10:09.448Z,77.63
2018-12-12T01:10:50.345Z,78.59
2018-12-12T01:11:31.087Z,78.08
2018-12-12T01:12:11.807Z,78.59
2018-12-12T01:12:52.538Z,78.3
2018-12-12T01:13:33.304Z,78.59
2018-12-12T01:14:14.113Z,78.59
2018-12-12T01:14:54.902Z,78.4
2018-12-12T01:15:35.743Z,78.21
2018-12-12T01:16:16.388Z,78.11
2018-12-12T01:16:57.128Z,77.78
2018-12-12T01:17:37.925Z,77.92
2018-12-12T01:18:18.669Z,77.92
2018-12-12T01:18:59.467Z,78.27
2018-12-12T01:19:40.196Z,78.4
2018-12-12T01:20:20.956Z,78.5
2018-12-12T01:21:01.771Z,78.45
2018-12-12T01:21:42.603Z,77.83
2018-12-12T01:22:23.342Z,77.83
2018-12-12T01:23:04.057Z,77.92
2018-12-12T01:23:44.822Z,78.11
2018-12-12T01:24:25.528Z,77.92
2018-12-12T01:25:06.361Z,78.02
2018-12-12T01:25:47.083Z,77.83
2018-12-12T01:26:27.786Z,78.11
2018-12-12T01:27:08.593Z,78.02
2018-12-12T01:27:49.387Z,78.11
2018-12-12T01:28:30.192Z,77.92
2018-12-12T01:29:10.939Z,77.92
2018-12-12T01:29:51.749Z,77.83
2018-12-12T01:30:32.558Z,77.92
2018-12-12T01:31:13.301Z,77.53
2018-12-12T01:31:54.007Z,77.83
2018-12-12T01:32:34.780Z,77.98
2018-12-12T01:33:15.529Z,77.83
2018-12-12T01:33:56.429Z,77.92
2018-12-12T01:34:37.207Z,78.17
2018-12-12T01:35:17.915Z,77.92
2018-12-12T01:35:58.775Z,77.63
2018-12-12T01:36:39.567Z,77.63
2018-12-12T01:37:20.392Z,77.83
2018-12-12T01:38:01.070Z,78.17
2018-12-12T01:38:41.784Z,78.02
2018-12-12T01:39:22.487Z,77.83
2018-12-12T01:40:03.248Z,77.53
2018-12-12T01:40:44.055Z,77.73
2018-12-12T01:41:24.892Z,77.88
2018-12-12T01:42:05.652Z,77.92
2018-12-12T01:42:46.385Z,77.53
2018-12-12T01:43:27.202Z,77.63
2018-12-12T01:44:08.011Z,77.83
2018-12-12T01:44:48.710Z,78.02
2018-12-12T01:45:29.459Z,77.78
2018-12-12T01:46:10.201Z,77.92
2018-12-12T01:46:51.066Z,77.83
2018-12-12T01:47:31.787Z,77.63
2018-12-12T01:48:12.477Z,77.63
2018-12-12T01:48:53.227Z,77.73
2018-12-12T01:49:34.073Z,77.53
2018-12-12T01:50:14.847Z,78.17
2018-12-12T01:50:55.597Z,77.63
2018-12-12T01:51:36.344Z,77.92
2018-12-12T01:52:17.098Z,77.73
2018-12-12T01:52:57.945Z,77.73
2018-12-12T01:53:38.688Z,77.53
2018-12-12T01:54:19.434Z,77.63
2018-12-12T01:55:00.195Z,77.78
2018-12-12T01:55:41.031Z,78.02
2018-12-12T01:56:21.818Z,78.02
2018-12-12T01:57:02.603Z,78.02
2018-12-12T01:57:43.317Z,77.53
2018-12-12T01:58:24.022Z,78.3
2018-12-12T01:59:04.785Z,77.73
2018-12-12T01:59:45.559Z,77.53
2018-12-12T02:00:26.325Z,77.4
2018-12-12T02:01:07.090Z,77.15
2018-12-12T02:01:47.862Z,77.44
2018-12-12T02:02:28.667Z,77.63
2018-12-12T02:03:09.431Z,77.73
2018-12-12T02:03:50.203Z,77.53
2018-12-12T02:04:30.877Z,77.88
2018-12-12T02:05:11.657Z,77.83
2018-12-12T02:05:52.421Z,77.92
2018-12-12T02:06:33.164Z,77.34
2018-12-12T02:07:13.885Z,77.4
2018-12-12T02:07:54.614Z,77.69
2018-12-12T02:08:35.412Z,77.73
2018-12-12T02:09:16.166Z,77.44
2018-12-12T02:09:56.867Z,77.63
2018-12-12T02:10:37.631Z,77.15
2018-12-12T02:11:18.462Z,77.25
2018-12-12T02:11:59.225Z,77.15
2018-12-12T02:12:39.946Z,77.11
2018-12-12T02:13:20.696Z,77.25
2018-12-12T02:14:01.463Z,77.44
2018-12-12T02:14:42.219Z,77.21
2018-12-12T02:15:23.030Z,77.15
2018-12-12T02:16:03.813Z,77.25
2018-12-12T02:16:44.571Z,77.25
2018-12-12T02:17:25.302Z,77.34
2018-12-12T02:18:06.047Z,77.25
2018-12-12T02:18:46.835Z,77.53
2018-12-12T02:19:27.548Z,77.44
2018-12-12T02:20:08.248Z,77.34
2018-12-12T02:20:48.954Z,76.77
2018-12-12T02:21:29.819Z,76.96
2018-12-12T02:22:10.672Z,76.96
2018-12-12T02:22:51.480Z,76.77
2018-12-12T02:23:32.236Z,76.96
2018-12-12T02:24:13.002Z,76.67
2018-12-12T02:24:53.729Z,76.54
2018-12-12T02:25:34.491Z,76.96
2018-12-12T02:26:15.397Z,76.86
2018-12-12T02:26:56.083Z,77.06
2018-12-12T02:27:36.833Z,77.11
2018-12-12T02:28:17.635Z,77.06
2018-12-12T02:28:58.446Z,76.67
2018-12-12T02:29:39.260Z,76.77
2018-12-12T02:30:20.026Z,76.64
2018-12-12T02:31:00.787Z,77.44
2018-12-12T02:31:41.491Z,77.25
2018-12-12T02:32:22.252Z,77.15
2018-12-12T02:33:03.042Z,76.96
2018-12-12T02:33:43.849Z,76.77
2018-12-12T02:34:24.572Z,76.67
2018-12-12T02:35:05.308Z,76.86
2018-12-12T02:35:46.089Z,76.67
2018-12-12T02:36:26.883Z,76.67
2018-12-12T02:37:07.603Z,76.77
2018-12-12T02:37:48.326Z,76.86
2018-12-12T02:38:29.068Z,77.15
2018-12-12T02:39:09.904Z,77.11
2018-12-12T02:39:50.626Z,77.15
2018-12-12T02:40:31.372Z,76.57
2018-12-12T02:41:12.118Z,77.25
2018-12-12T02:41:52.926Z,76.67
2018-12-12T02:42:33.782Z,76.77
2018-12-12T02:43:14.498Z,76.77
2018-12-12T02:43:55.265Z,76.82
2018-12-12T02:44:36.070Z,76.77
2018-12-12T02:45:16.826Z,76.67
2018-12-12T02:45:57.540Z,77.01
2018-12-12T02:46:38.266Z,76.77
2018-12-12T02:47:19.041Z,76.96
2018-12-12T02:47:59.857Z,76.96
2018-12-12T02:48:40.661Z,76.48
2018-12-12T02:49:21.445Z,76.96
2018-12-12T02:50:02.162Z,76.96
2018-12-12T02:50:42.900Z,76.96
2018-12-12T02:51:23.600Z,76.67
2018-12-12T02:52:04.417Z,76.67
2018-12-12T02:52:45.162Z,76.96
2018-12-12T02:53:25.870Z,76.77
2018-12-12T02:54:06.714Z,76.96
2018-12-12T02:54:47.519Z,76.77
2018-12-12T02:55:28.344Z,76.96
2018-12-12T02:56:09.058Z,76.67
2018-12-12T02:56:49.766Z,76.96
2018-12-12T02:57:30.528Z,76.86
2018-12-12T02:58:11.369Z,76.77
2018-12-12T02:58:52.165Z,76.77
2018-12-12T02:59:32.971Z,76.57
2018-12-12T03:00:13.721Z,76.57
2018-12-12T03:00:54.461Z,76.57
2018-12-12T03:01:35.233Z,76.77
2018-12-12T03:02:16.014Z,76.48
2018-12-12T03:02:56.689Z,76.29
2018-12-12T03:03:37.462Z,76.67
2018-12-12T03:04:18.217Z,76.57
2018-12-12T03:04:59.009Z,76.48
2018-12-12T03:05:39.829Z,76.48
2018-12-12T03:06:20.563Z,76.77
2018-12-12T03:07:01.281Z,76.29
2018-12-12T03:07:42.034Z,76.48
2018-12-12T03:08:22.656Z,76.57
2018-12-12T03:09:03.435Z,76.77
2018-12-12T03:09:44.185Z,76.77
2018-12-12T03:10:24.890Z,76.77
2018-12-12T03:11:05.646Z,76.09
2018-12-12T03:11:46.419Z,76.19
2018-12-12T03:12:27.237Z,76.29
2018-12-12T03:13:08.001Z,76.67
2018-12-12T03:13:48.747Z,76.77
2018-12-12T03:14:29.515Z,76.48
2018-12-12T03:15:10.261Z,76.67
2018-12-12T03:15:50.999Z,76.96
2018-12-12T03:16:31.724Z,76.96
2018-12-12T03:17:12.434Z,76.77
2018-12-12T03:17:53.265Z,76.57
2018-12-12T03:18:34.035Z,76.48
2018-12-12T03:19:14.741Z,76.67
2018-12-12T03:19:55.548Z,76.57
2018-12-12T03:20:36.322Z,77.25
2018-12-12T03:21:17.100Z,76.19
2018-12-12T03:21:57.832Z,76.29
2018-12-12T03:22:38.528Z,76.57
2018-12-12T03:23:19.219Z,76.29
2018-12-12T03:24:00.016Z,76.67
2018-12-12T03:24:40.788Z,76.09
2018-12-12T03:25:21.605Z,76.48
2018-12-12T03:26:02.392Z,76.48
2018-12-12T03:26:43.077Z,76.39
2018-12-12T03:27:23.878Z,76.09
2018-12-12T03:28:04.654Z,75.9
2018-12-12T03:28:45.364Z,76.09
2018-12-12T03:29:26.093Z,76.86
2018-12-12T03:30:06.785Z,76.67
2018-12-12T03:30:47.586Z,76.67
2018-12-12T03:31:28.370Z,76.77
2018-12-12T03:32:09.153Z,76.48
2018-12-12T03:32:49.936Z,76.29
2018-12-12T03:33:30.680Z,76.67
2018-12-12T03:34:11.385Z,76.67
2018-12-12T03:34:52.119Z,76.19
2018-12-12T03:35:32.909Z,76.48
2018-12-12T03:36:13.667Z,76.67
2018-12-12T03:36:54.412Z,76.09
2018-12-12T03:37:35.244Z,76.09
2018-12-12T03:38:16.082Z,76.67
2018-12-12T03:38:56.896Z,76.48
2018-12-12T03:39:37.635Z,76.09
2018-12-12T03:40:18.374Z,76.39
2018-12-12T03:40:59.097Z,76
2018-12-12T03:41:39.885Z,75.71
2018-12-12T03:42:20.663Z,76.29
2018-12-12T03:43:01.484Z,76.48
2018-12-12T03:43:42.256Z,75.81
2018-12-12T03:44:22.972Z,75.81
2018-12-12T03:45:03.787Z,76.09
2018-12-12T03:45:44.573Z,76.48
2018-12-12T03:46:25.296Z,76.39
2018-12-12T03:47:06.552Z,76.29
2018-12-12T03:47:47.300Z,76.67
2018-12-12T03:48:28.122Z,76.39
2018-12-12T03:49:08.881Z,76.48
2018-12-12T03:49:49.621Z,76
2018-12-12T03:50:30.402Z,76.09
2018-12-12T03:51:11.224Z,76.57
2018-12-12T03:51:52.009Z,76.77
2018-12-12T03:52:32.749Z,76
2018-12-12T03:53:13.466Z,76.09
2018-12-12T03:53:54.310Z,75.71
2018-12-12T03:54:35.056Z,76.09
2018-12-12T03:55:15.777Z,76.19
2018-12-12T03:55:56.494Z,76.09
2018-12-12T03:56:37.228Z,75.81
2018-12-12T03:57:17.993Z,75.81
2018-12-12T03:57:58.806Z,76.09
2018-12-12T03:58:39.640Z,75.81
2018-12-12T03:59:20.333Z,75.9
2018-12-12T04:00:01.085Z,75.9
2018-12-12T04:00:41.804Z,75.62
2018-12-12T04:01:22.628Z,76.09
2018-12-12T04:02:03.349Z,76.57
2018-12-12T04:02:44.100Z,76.39
2018-12-12T04:03:24.896Z,76.48
2018-12-12T04:04:05.649Z,75.9
2018-12-12T04:04:46.469Z,75.81
2018-12-12T04:05:27.240Z,75.62
2018-12-12T04:06:07.987Z,75.9
2018-12-12T04:06:48.819Z,76.19
2018-12-12T04:07:29.636Z,75.81
2018-12-12T04:08:10.337Z,76.19
2018-12-12T04:08:51.101Z,76.57
2018-12-12T04:09:31.787Z,75.9
2018-12-12T04:10:12.651Z,75.81
2018-12-12T04:10:53.421Z,75.71
2018-12-12T04:11:34.121Z,75.71
2018-12-12T04:12:14.926Z,76.29
2018-12-12T04:12:55.737Z,75.9
2018-12-12T04:13:36.614Z,76
2018-12-12T04:14:17.393Z,75.81
2018-12-12T04:14:58.088Z,75.71
2018-12-12T04:15:38.791Z,76.09
2018-12-12T04:16:19.546Z,76.29
2018-12-12T04:17:00.346Z,76.57
2018-12-12T04:17:41.144Z,76.48
2018-12-12T04:18:21.865Z,76.09
2018-12-12T04:19:02.561Z,75.81
2018-12-12T04:19:43.367Z,75.9
2018-12-12T04:20:24.167Z,75.9
2018-12-12T04:21:04.943Z,76.67
2018-12-12T04:21:45.669Z,76.57
2018-12-12T04:22:26.415Z,76
2018-12-12T04:23:07.217Z,76.19
2018-12-12T04:23:47.953Z,76.19
2018-12-12T04:24:28.732Z,76.48
2018-12-12T04:25:09.533Z,76.09
2018-12-12T04:25:50.328Z,75.9
2018-12-12T04:26:31.125Z,75.81
2018-12-12T04:27:11.864Z,75.81
2018-12-12T04:27:52.581Z,76.09
2018-12-12T04:28:33.412Z,76.19
2018-12-12T04:29:14.227Z,76.48
2018-12-12T04:29:55.194Z,76.39
2018-12-12T04:30:35.964Z,76.77
2018-12-12T04:31:16.706Z,76.39
2018-12-12T04:31:57.794Z,76
2018-12-12T04:32:38.623Z,75.81
2018-12-12T04:33:19.415Z,75.9
2018-12-12T04:34:00.185Z,75.9
2018-12-12T04:34:40.989Z,76.29
2018-12-12T04:35:21.882Z,76.67
2018-12-12T04:36:02.672Z,76.19
2018-12-12T04:36:43.477Z,76.09
2018-12-12T04:37:24.254Z,75.81
2018-12-12T04:38:05.068Z,75.81
2018-12-12T04:38:45.876Z,75.81
2018-12-12T04:39:26.702Z,75.71
2018-12-12T04:40:07.464Z,76.19
2018-12-12T04:40:48.180Z,75.9
2018-12-12T04:41:28.879Z,76.29
2018-12-12T04:42:09.608Z,75.9
2018-12-12T04:42:50.413Z,75.81
2018-12-12T04:43:31.157Z,76.67
2018-12-12T04:44:11.992Z,76.39
2018-12-12T04:44:52.718Z,75.9
2018-12-12T04:45:33.504Z,76.67
2018-12-12T04:46:14.334Z,76.48
2018-12-12T04:46:55.083Z,75.71
2018-12-12T04:47:35.780Z,76
2018-12-12T04:48:16.489Z,76.48
2018-12-12T04:48:57.235Z,75.9
2018-12-12T04:49:38.055Z,75.9
2018-12-12T04:50:18.851Z,75.71
2018-12-12T04:50:59.620Z,75.9
2018-12-12T04:51:40.338Z,75.9
2018-12-12T04:52:21.087Z,75.81
2018-12-12T04:53:01.826Z,76
2018-12-12T04:53:42.631Z,76
2018-12-12T04:54:23.417Z,76.39
2018-12-12T04:55:04.113Z,76.09
2018-12-12T04:55:44.972Z,76.09
2018-12-12T04:56:25.725Z,76.48
2018-12-12T04:57:06.550Z,76.39
2018-12-12T04:57:47.264Z,76.86
2018-12-12T04:58:27.965Z,76.19
2018-12-12T04:59:08.759Z,76.67
2018-12-12T04:59:49.502Z,76.39
2018-12-12T05:00:30.242Z,76
2018-12-12T05:01:10.984Z,76.09
2018-12-12T05:01:51.735Z,76.09
2018-12-12T05:02:32.544Z,76.39
2018-12-12T05:03:13.276Z,76.48
2018-12-12T05:03:54.010Z,76
2018-12-12T05:04:34.803Z,76.48
2018-12-12T05:05:15.582Z,76.09
2018-12-12T05:05:56.387Z,76.48
2018-12-12T05:06:37.158Z,75.71
2018-12-12T05:07:17.877Z,76
2018-12-12T05:07:58.567Z,76.09
2018-12-12T05:08:39.442Z,76.19
2018-12-12T05:09:20.245Z,75.9
2018-12-12T05:10:01.186Z,76.19
2018-12-12T05:10:41.958Z,75.9
2018-12-12T05:11:22.659Z,76.09
2018-12-12T05:12:03.495Z,76.48
2018-12-12T05:12:44.262Z,76.39
2018-12-12T05:13:24.994Z,76.57
2018-12-12T05:14:05.725Z,76.29
2018-12-12T05:14:46.426Z,76.39
2018-12-12T05:15:27.219Z,76.39
2018-12-12T05:16:08.031Z,75.71
2018-12-12T05:16:48.896Z,76
2018-12-12T05:17:29.661Z,76.19
2018-12-12T05:18:10.348Z,76.57
2018-12-12T05:18:51.067Z,76.09
2018-12-12T05:19:31.866Z,76
2018-12-12T05:20:12.711Z,75.9
2018-12-12T05:20:53.452Z,76.48
2018-12-12T05:21:34.183Z,76.09
2018-12-12T05:22:15.003Z,76.29
2018-12-12T05:22:55.776Z,76.09
2018-12-12T05:23:36.599Z,76.39
2018-12-12T05:24:17.286Z,76.09
2018-12-12T05:24:57.974Z,75.9
2018-12-12T05:25:38.725Z,76
2018-12-12T05:26:19.515Z,75.81
2018-12-12T05:27:00.304Z,75.71
2018-12-12T05:27:41.106Z,75.81
2018-12-12T05:28:21.818Z,76.29
2018-12-12T05:29:02.592Z,76.09
2018-12-12T05:29:43.365Z,76.09
2018-12-12T05:30:24.110Z,76.39
2018-12-12T05:31:04.890Z,75.9
2018-12-12T05:31:45.584Z,76.19
2018-12-12T05:32:26.346Z,76.09
2018-12-12T05:33:07.162Z,76.19
2018-12-12T05:33:47.908Z,76.39
2018-12-12T05:34:28.652Z,75.9
2018-12-12T05:35:09.394Z,75.81
2018-12-12T05:35:50.180Z,76
2018-12-12T05:36:31.046Z,76.39
2018-12-12T05:37:11.778Z,76.09
2018-12-12T05:37:52.542Z,76.29
2018-12-12T05:38:33.372Z,76.19
2018-12-12T05:39:14.061Z,76.09
2018-12-12T05:39:54.756Z,76.19
2018-12-12T05:40:35.497Z,76.09
2018-12-12T05:41:16.246Z,76.39
2018-12-12T05:41:57.086Z,76.19
2018-12-12T05:42:37.828Z,76.39
2018-12-12T05:43:18.601Z,76.19
2018-12-12T05:43:59.281Z,76.29
2018-12-12T05:44:40.089Z,76.39
2018-12-12T05:45:20.844Z,75.71
2018-12-12T05:46:01.622Z,75.9
2018-12-12T05:46:42.393Z,76.09
2018-12-12T05:47:23.135Z,76.19
2018-12-12T05:48:03.966Z,76
2018-12-12T05:48:44.781Z,75.81
2018-12-12T05:49:25.608Z,75.9
2018-12-12T05:50:06.363Z,75.9
2018-12-12T05:50:47.153Z,75.9
2018-12-12T05:51:27.862Z,76.67
2018-12-12T05:52:08.634Z,75.9
2018-12-12T05:52:49.421Z,75.81
2018-12-12T05:53:30.248Z,75.71
2018-12-12T05:54:11.064Z,75.81
2018-12-12T05:54:51.783Z,75.9
2018-12-12T05:55:32.534Z,75.9
2018-12-12T05:56:14.190Z,75.9
2018-12-12T05:56:54.113Z,75.81
2018-12-12T05:57:34.864Z,75.9
2018-12-12T05:58:15.625Z,76.19
2018-12-12T05:58:56.423Z,76
2018-12-12T05:59:37.201Z,75.9
2018-12-12T06:00:17.982Z,75.9
2018-12-12T06:00:58.761Z,75.9
2018-12-12T06:01:39.530Z,75.9
2018-12-12T06:02:20.275Z,75.9
2018-12-12T06:03:01.042Z,75.71
2018-12-12T06:03:41.864Z,76.39
2018-12-12T06:04:22.598Z,75.81
2018-12-12T06:05:03.309Z,75.81
2018-12-12T06:05:44.146Z,76.29
2018-12-12T06:06:24.904Z,75.9
2018-12-12T06:07:05.728Z,75.71
2018-12-12T06:07:46.429Z,75.62
2018-12-12T06:08:27.195Z,75.81
2018-12-12T06:09:08.004Z,76
2018-12-12T06:09:48.718Z,76.39
2018-12-12T06:10:29.455Z,75.9
2018-12-12T06:11:10.206Z,75.81
2018-12-12T06:11:50.953Z,75.62
2018-12-12T06:12:31.866Z,76
2018-12-12T06:13:12.555Z,76.48
2018-12-12T06:13:53.334Z,76.39
2018-12-12T06:14:34.133Z,76.39
2018-12-12T06:15:14.929Z,76.67
2018-12-12T06:15:55.795Z,76.09
2018-12-12T06:16:36.504Z,75.9
2018-12-12T06:17:17.241Z,75.9
2018-12-12T06:17:57.986Z,76.29
2018-12-12T06:18:38.761Z,75.9
2018-12-12T06:19:19.555Z,76.29
2018-12-12T06:20:00.352Z,75.9
2018-12-12T06:20:41.034Z,76.57
2018-12-12T06:21:21.780Z,76.39
2018-12-12T06:22:02.566Z,75.62
2018-12-12T06:22:43.269Z,76.19
2018-12-12T06:23:24.005Z,75.9
2018-12-12T06:24:04.749Z,76
2018-12-12T06:24:45.477Z,76
2018-12-12T06:25:26.262Z,76
2018-12-12T06:26:07.049Z,76.39
2018-12-12T06:26:47.774Z,76.19
2018-12-12T06:27:28.581Z,75.9
2018-12-12T06:28:09.345Z,75.81
2018-12-12T06:28:50.145Z,76.48
2018-12-12T06:29:30.839Z,75.71
2018-12-12T06:30:11.592Z,76
2018-12-12T06:30:52.496Z,76
2018-12-12T06:31:33.224Z,76.09
2018-12-12T06:32:14.012Z,76.09
2018-12-12T06:32:54.738Z,76.67
2018-12-12T06:33:35.507Z,76.39
2018-12-12T06:34:16.295Z,76.39
2018-12-12T06:34:57.105Z,76.39
2018-12-12T06:35:37.831Z,76.57
2018-12-12T06:36:18.561Z,76.39
2018-12-12T06:36:59.253Z,76.39
2018-12-12T06:37:39.984Z,75.9
2018-12-12T06:38:20.758Z,76.67
2018-12-12T06:39:01.547Z,76
2018-12-12T06:39:42.308Z,76.09
2018-12-12T06:40:23.128Z,76.09
2018-12-12T06:41:03.880Z,75.81
2018-12-12T06:41:44.708Z,76
2018-12-12T06:42:25.423Z,76.48
2018-12-12T06:43:06.189Z,76.29
2018-12-12T06:43:47.000Z,76.48
2018-12-12T06:44:27.706Z,76.09
2018-12-12T06:45:08.426Z,76
2018-12-12T06:45:49.121Z,75.71
2018-12-12T06:46:29.895Z,75.9
2018-12-12T06:47:10.714Z,75.81
2018-12-12T06:47:51.430Z,75.9
2018-12-12T06:48:32.192Z,76
2018-12-12T06:49:12.965Z,76.09
2018-12-12T06:49:53.765Z,76.09
2018-12-12T06:50:34.579Z,76.39
2018-12-12T06:51:15.278Z,76.39
2018-12-12T06:51:56.006Z,76.67
2018-12-12T06:52:36.738Z,76.48
2018-12-12T06:53:17.554Z,76.39
2018-12-12T06:53:58.330Z,76.39
2018-12-12T06:54:39.140Z,76.96
2018-12-12T06:55:19.858Z,76.29
2018-12-12T06:56:00.614Z,76.48
2018-12-12T06:56:41.413Z,76.48
2018-12-12T06:57:22.207Z,76.39
2018-12-12T06:58:02.921Z,76.57
2018-12-12T06:58:43.653Z,76.29
2018-12-12T06:59:24.365Z,76.29
2018-12-12T07:00:05.183Z,76.57
2018-12-12T07:00:45.929Z,76.48
2018-12-12T07:01:26.733Z,76.09
2018-12-12T07:02:07.484Z,76.57
2018-12-12T07:04:22.965Z,76.39
2018-12-12T07:05:03.827Z,76.19
2018-12-12T07:05:44.593Z,76.19
2018-12-12T07:06:25.329Z,76.09
2018-12-12T07:07:06.089Z,76.09
2018-12-12T07:07:46.836Z,76.09
2018-12-12T07:08:27.567Z,76
2018-12-12T07:09:08.340Z,76.48
2018-12-12T07:09:49.106Z,76.48
2018-12-12T07:10:29.898Z,76.48
2018-12-12T07:11:10.746Z,76.57
2018-12-12T07:11:51.568Z,76.57
2018-12-12T07:12:32.332Z,76
2018-12-12T07:13:13.064Z,76.09
2018-12-12T07:13:53.755Z,75.81
2018-12-12T07:14:34.497Z,75.81
2018-12-12T07:15:15.310Z,75.9
2018-12-12T07:15:56.193Z,75.9
2018-12-12T07:16:36.981Z,76
2018-12-12T07:17:17.680Z,76.09
2018-12-12T07:17:58.409Z,76.19
2018-12-12T07:18:39.207Z,76.39
2018-12-12T07:19:19.924Z,76.09
2018-12-12T07:20:00.668Z,76.86
2018-12-12T07:20:41.390Z,76.48
2018-12-12T07:21:22.192Z,76.96
2018-12-12T07:22:03.043Z,76.77
2018-12-12T07:22:43.815Z,76.67
2018-12-12T07:23:24.639Z,76.29
2018-12-12T07:24:05.366Z,76.29
2018-12-12T07:24:46.068Z,76.57
2018-12-12T07:25:26.817Z,76.48
2018-12-12T07:26:07.716Z,76.67
2018-12-12T07:26:48.470Z,76.86
2018-12-12T07:27:29.215Z,77.15
2018-12-12T07:28:10.045Z,76.77
2018-12-12T07:28:50.848Z,76.86
2018-12-12T07:29:31.678Z,77.44
2018-12-12T07:30:12.377Z,77.83
2018-12-12T07:30:53.121Z,77.73
2018-12-12T07:31:33.827Z,78.21
2018-12-12T07:32:14.620Z,79.3
2018-12-12T07:32:55.396Z,79.07
2018-12-12T07:33:36.158Z,78.63
2018-12-12T07:34:16.898Z,78.63
2018-12-12T07:34:57.617Z,78.44
2018-12-12T07:35:38.392Z,78.25
2018-12-12T07:36:19.194Z,78.25
2018-12-12T07:36:59.942Z,78.15
2018-12-12T07:37:40.683Z,77.96
2018-12-12T07:38:21.416Z,78.25
2018-12-12T07:39:02.202Z,78.25
2018-12-12T07:39:43.004Z,78.25
2018-12-12T07:40:23.734Z,78.06
2018-12-12T07:41:04.542Z,78.44
2018-12-12T07:41:45.348Z,77.96
2018-12-12T07:42:26.157Z,77.67
2018-12-12T07:43:06.930Z,78.44
2018-12-12T07:43:47.642Z,78.25
2018-12-12T07:44:28.450Z,78.25
2018-12-12T07:45:09.195Z,78.44
2018-12-12T07:45:49.895Z,78.53
2018-12-12T07:46:30.605Z,78.73
2018-12-12T07:47:11.370Z,78.59
2018-12-12T07:47:52.197Z,78.5
2018-12-12T07:48:33.054Z,78.73
2018-12-12T07:49:13.854Z,78.83
2018-12-12T07:49:54.610Z,78.44
2018-12-12T07:50:35.301Z,78.63
2018-12-12T07:51:16.028Z,79.07
2018-12-12T07:51:56.799Z,78.3
2018-12-12T07:52:37.593Z,78.69
2018-12-12T07:53:18.312Z,79.07
2018-12-12T07:53:59.051Z,78.69
2018-12-12T07:54:39.899Z,78.69
2018-12-12T07:55:20.657Z,78.69
2018-12-12T07:56:01.436Z,78.59
2018-12-12T07:56:42.159Z,78.78
2018-12-12T07:57:22.899Z,78.69
2018-12-12T07:58:03.609Z,78.69
2018-12-12T07:58:44.383Z,78.88
2018-12-12T07:59:25.181Z,78.83
2018-12-12T08:00:05.922Z,79.07
2018-12-12T08:00:46.602Z,78.78
2018-12-12T08:01:27.366Z,78.5
2018-12-12T08:02:08.140Z,79.07
2018-12-12T08:02:48.832Z,78.5
2018-12-12T08:03:29.553Z,78.59
2018-12-12T08:04:10.297Z,78.59
2018-12-12T08:04:51.108Z,78.69
2018-12-12T08:05:31.870Z,78.88
2018-12-12T08:06:12.683Z,78.78
2018-12-12T08:06:53.385Z,78.5
2018-12-12T08:07:34.107Z,78.78
2018-12-12T08:08:14.808Z,78.69
2018-12-12T08:08:55.525Z,79.07
2018-12-12T08:09:36.313Z,79.65
2018-12-12T08:10:17.032Z,79.75
2018-12-12T08:10:57.731Z,79.27
2018-12-12T08:11:38.511Z,78.78
2018-12-12T08:12:19.313Z,79.27
2018-12-12T08:13:00.108Z,78.88
2018-12-12T08:13:40.853Z,79.07
2018-12-12T08:14:21.646Z,78.88
2018-12-12T08:15:02.513Z,79.75
2018-12-12T08:15:43.254Z,79.36
2018-12-12T08:16:24.001Z,79.46
2018-12-12T08:17:04.760Z,79.75
2018-12-12T08:17:45.535Z,79.65
2018-12-12T08:18:26.327Z,79.46
2018-12-12T08:19:07.044Z,79.65
2018-12-12T08:19:47.775Z,79.17
2018-12-12T08:20:28.590Z,79.36
2018-12-12T08:21:09.408Z,79.17
2018-12-12T08:21:50.122Z,79.17
2018-12-12T08:22:30.881Z,79.17
2018-12-12T08:23:11.593Z,79.65
2018-12-12T08:23:52.321Z,79.65
2018-12-12T08:24:33.118Z,79.65
2018-12-12T08:25:13.897Z,78.78
2018-12-12T08:25:54.721Z,78.78
2018-12-12T08:26:35.447Z,78.5
2018-12-12T08:27:16.175Z,79.07
2018-12-12T08:27:57.011Z,78.59
2018-12-12T08:28:37.745Z,78.69
2018-12-12T08:29:18.491Z,78.98
2018-12-12T08:29:59.214Z,78.98
2018-12-12T08:30:39.913Z,79.07
2018-12-12T08:31:20.715Z,79.07
2018-12-12T08:32:01.529Z,79.07
2018-12-12T08:32:42.274Z,78.78
2018-12-12T08:33:22.972Z,78.98
2018-12-12T08:34:03.686Z,79.46
2018-12-12T08:34:44.376Z,79.07
2018-12-12T08:35:25.199Z,78.88
2018-12-12T08:36:05.918Z,79.27
2018-12-12T08:36:46.670Z,79.07
2018-12-12T08:37:27.473Z,79.07
2018-12-12T08:38:08.271Z,79.17
2018-12-12T08:38:49.125Z,79.27
2018-12-12T08:39:29.846Z,79.17
2018-12-12T08:40:10.558Z,79.07
2018-12-12T08:40:51.284Z,79.36
2018-12-12T08:41:32.073Z,79.55
2018-12-12T08:42:12.921Z,79.65
2018-12-12T08:42:53.718Z,79.65
2018-12-12T08:43:34.438Z,79.46
2018-12-12T08:44:15.198Z,78.88
2018-12-12T08:44:55.991Z,79.07
2018-12-12T08:45:36.749Z,78.98
2018-12-12T08:46:17.468Z,78.98
2018-12-12T08:46:58.170Z,78.69
2018-12-12T08:47:38.935Z,78.59
2018-12-12T08:48:19.706Z,78.4
2018-12-12T08:49:00.495Z,78.69
2018-12-12T08:49:41.272Z,78.78
2018-12-12T08:50:22.032Z,79.27